createdAt,value
2022-11-24T00:02:18.672Z,100187.06
2022-11-24T00:04:46.978Z,100193.19
2022-11-24T00:07:14.699Z,100194.19
2022-11-24T00:09:41.886Z,100190.72
2022-11-24T00:12:08.906Z,100194.19
2022-11-24T00:14:36.514Z,100192.34
2022-11-24T00:17:03.444Z,100189.53
2022-11-24T00:19:35.100Z,100197.47
2022-11-24T00:22:03.258Z,100196.66
2022-11-24T00:24:30.290Z,100200.13
2022-11-24T00:26:57.158Z,100188.50
2022-11-24T00:29:25.459Z,100192.19
2022-11-24T00:31:52.247Z,100190.53
2022-11-24T00:34:19.111Z,100206.44
2022-11-24T00:36:45.905Z,100202.13
2022-11-24T00:39:15.731Z,100203.59
2022-11-24T00:41:43.006Z,100206.25
2022-11-24T00:44:09.902Z,100195.84
2022-11-24T00:46:37.014Z,100214.22
2022-11-24T00:49:04.432Z,100203.59
2022-11-24T00:51:31.601Z,100209.72
2022-11-24T00:53:58.498Z,100215.84
2022-11-24T00:56:27.918Z,100203.19
2022-11-24T00:58:55.426Z,100204.84
2022-11-24T01:01:31.141Z,100209.16
2022-11-24T01:04:01.364Z,100209.97
2022-11-24T01:06:29.492Z,100209.16
2022-11-24T01:08:57.615Z,100209.97
2022-11-24T01:11:28.331Z,100203.84
2022-11-24T01:13:57.868Z,100213.44
2022-11-24T01:16:26.690Z,100221.41
2022-11-24T01:18:54.249Z,100217.75
2022-11-24T01:21:21.652Z,100219.56
2022-11-24T01:23:48.852Z,100232.00
2022-11-24T01:26:17.671Z,100225.88
2022-11-24T01:28:47.520Z,100224.88
2022-11-24T01:31:15.791Z,100231.00
2022-11-24T01:33:42.948Z,100232.81
2022-11-24T01:36:11.512Z,100239.31
2022-11-24T01:38:38.342Z,100241.16
2022-11-24T01:41:07.947Z,100245.63
2022-11-24T01:43:35.118Z,100247.50
2022-11-24T01:46:12.971Z,100244.84
2022-11-24T01:48:43.860Z,100242.97
2022-11-24T01:51:16.200Z,100237.69
2022-11-24T01:53:46.217Z,100244.00
2022-11-24T01:56:14.030Z,100239.72
2022-11-24T01:58:45.679Z,100243.19
2022-11-24T02:01:16.552Z,100249.50
2022-11-24T02:03:48.427Z,100256.63
2022-11-24T02:06:20.302Z,100256.63
2022-11-24T02:08:52.174Z,100259.28
2022-11-24T02:11:19.113Z,100264.78
2022-11-24T02:13:47.951Z,100258.66
2022-11-24T02:16:16.173Z,100263.13
2022-11-24T02:18:45.298Z,100259.66
2022-11-24T02:21:17.104Z,100263.31
2022-11-24T02:23:49.654Z,100268.81
2022-11-24T02:26:38.360Z,100273.31
2022-11-24T02:29:07.640Z,100278.63
2022-11-24T02:31:35.687Z,100275.13
2022-11-24T02:34:02.853Z,100276.97
2022-11-24T02:36:29.800Z,100275.97
2022-11-24T02:38:56.857Z,100275.97
2022-11-24T02:41:26.992Z,100273.91
2022-11-24T02:43:59.368Z,100283.53
2022-11-24T02:46:26.320Z,100274.56
2022-11-24T02:48:54.383Z,100280.69
2022-11-24T02:51:21.204Z,100282.34
2022-11-24T02:53:47.889Z,100289.28
2022-11-24T02:56:16.014Z,100287.63
2022-11-24T02:58:42.858Z,100281.50
2022-11-24T03:01:11.012Z,100283.34
2022-11-24T03:03:38.072Z,100282.69
2022-11-24T03:06:05.082Z,100286.38
2022-11-24T03:08:31.877Z,100283.72
2022-11-24T03:10:58.613Z,100281.88
2022-11-24T03:13:27.086Z,100274.97
2022-11-24T03:15:53.881Z,100278.63
2022-11-24T03:18:23.393Z,100286.75
2022-11-24T03:20:50.378Z,100288.56
2022-11-24T03:23:17.153Z,100281.81
2022-11-24T03:25:43.918Z,100294.88
2022-11-24T03:28:10.645Z,100294.06
2022-11-24T03:30:37.396Z,100289.75
2022-11-24T03:33:06.549Z,100297.72
2022-11-24T03:35:34.670Z,100300.38
2022-11-24T03:38:02.146Z,100310.97
2022-11-24T03:40:28.867Z,100310.16
2022-11-24T03:42:58.088Z,100313.63
2022-11-24T03:48:11.601Z,100316.28
2022-11-24T03:50:40.825Z,100314.44
2022-11-24T03:53:08.035Z,100315.28
2022-11-24T03:55:35.202Z,100324.88
2022-11-24T03:58:02.036Z,100327.53
2022-11-24T04:00:28.945Z,100333.81
2022-11-24T04:02:55.805Z,100333.00
2022-11-24T04:05:23.222Z,100336.66
2022-11-24T04:07:51.420Z,100345.66
2022-11-24T04:10:18.174Z,100342.78
2022-11-24T04:12:44.961Z,100345.44
2022-11-24T04:15:15.096Z,100347.25
2022-11-24T04:17:41.966Z,100347.09
2022-11-24T04:20:10.344Z,100343.59
2022-11-24T04:22:37.568Z,100335.66
2022-11-24T04:25:07.574Z,100353.03
2022-11-24T04:27:35.420Z,100350.38
2022-11-24T04:30:02.485Z,100355.69
2022-11-24T04:32:29.123Z,100360.97
2022-11-24T04:34:55.837Z,100355.88
2022-11-24T04:37:22.835Z,100356.88
2022-11-24T04:39:49.640Z,100361.34
2022-11-24T04:42:17.645Z,100358.69
2022-11-24T04:44:44.526Z,100361.34
2022-11-24T04:47:15.210Z,100361.34
2022-11-24T04:49:42.333Z,100368.47
2022-11-24T04:52:09.023Z,100358.09
2022-11-24T04:54:35.996Z,100367.69
2022-11-24T04:57:02.864Z,100372.97
2022-11-24T04:59:31.035Z,100367.88
2022-11-24T05:01:57.849Z,100367.88
2022-11-24T05:04:26.239Z,100375.81
2022-11-24T05:06:53.664Z,100378.47
2022-11-24T05:09:20.435Z,100376.63
2022-11-24T05:11:47.123Z,100374.16
2022-11-24T05:14:13.793Z,100379.28
2022-11-24T05:16:41.839Z,100390.50
2022-11-24T05:19:08.574Z,100384.19
2022-11-24T05:21:35.370Z,100400.75
2022-11-24T05:24:02.026Z,100398.09
2022-11-24T05:26:28.970Z,100397.09
2022-11-24T05:28:55.697Z,100415.50
2022-11-24T05:31:22.499Z,100419.97
2022-11-24T05:33:51.175Z,100414.44
2022-11-24T05:39:18.418Z,100426.72
2022-11-24T05:41:45.670Z,100434.66
2022-11-24T05:44:12.444Z,100439.78
2022-11-24T05:46:39.420Z,100429.19
2022-11-24T05:49:07.541Z,100441.44
2022-11-24T05:51:34.550Z,100446.56
2022-11-24T05:54:01.466Z,100453.50
2022-11-24T05:56:28.401Z,100454.34
2022-11-24T05:58:55.658Z,100465.75
2022-11-24T06:01:22.466Z,100470.25
2022-11-24T06:03:49.274Z,100478.81
2022-11-24T06:06:19.800Z,100482.47
2022-11-24T06:08:46.495Z,100489.59
2022-11-24T06:11:19.058Z,100492.09
2022-11-24T06:13:48.474Z,100496.78
2022-11-24T06:16:15.457Z,100501.88
2022-11-24T06:18:42.595Z,100504.53
2022-11-24T06:21:11.339Z,100510.66
2022-11-24T06:23:39.982Z,100512.47
2022-11-24T06:26:06.985Z,100518.00
2022-11-24T06:28:33.671Z,100518.78
2022-11-24T06:31:01.751Z,100525.72
2022-11-24T06:33:32.227Z,100532.03
2022-11-24T06:36:04.556Z,100533.69
2022-11-24T06:38:31.568Z,100537.16
2022-11-24T06:41:04.459Z,100536.34
2022-11-24T06:43:31.261Z,100548.78
2022-11-24T06:45:58.906Z,100556.94
2022-11-24T06:48:26.615Z,100556.94
2022-11-24T06:50:53.529Z,100555.28
2022-11-24T06:53:20.366Z,100566.91
2022-11-24T06:55:47.333Z,100564.41
2022-11-24T06:58:15.384Z,100575.84
2022-11-24T07:00:42.287Z,100576.03
2022-11-24T07:03:15.478Z,100578.84
2022-11-24T07:05:42.998Z,100593.97
2022-11-24T07:08:13.243Z,100586.19
2022-11-24T07:10:44.254Z,100591.50
2022-11-24T07:13:10.956Z,100602.28
2022-11-24T07:15:38.971Z,100613.88
2022-11-24T07:18:05.744Z,100618.34
2022-11-24T07:20:32.665Z,100632.28
2022-11-24T07:22:59.652Z,100631.28
2022-11-24T07:25:26.682Z,100629.25
2022-11-24T07:27:56.727Z,100636.19
2022-11-24T07:30:23.397Z,100638.66
2022-11-24T07:32:52.934Z,100641.97
2022-11-24T07:35:19.529Z,100649.94
2022-11-24T07:37:46.329Z,100658.72
2022-11-24T07:40:13.213Z,100667.28
2022-11-24T07:42:39.782Z,100663.84
2022-11-24T07:45:07.735Z,100676.91
2022-11-24T07:47:39.296Z,100676.06
2022-11-24T07:50:10.944Z,100689.16
2022-11-24T07:52:38.532Z,100686.50
2022-11-24T07:55:06.311Z,100686.34
2022-11-24T07:57:33.187Z,100686.50
2022-11-24T07:59:59.795Z,100695.28
2022-11-24T08:02:26.543Z,100697.94
2022-11-24T08:04:53.189Z,100708.56
2022-11-24T08:07:21.405Z,100704.06
2022-11-24T08:09:50.299Z,100711.88
2022-11-24T08:12:21.509Z,100718.00
2022-11-24T08:14:49.371Z,100718.81
2022-11-24T08:17:16.613Z,100725.78
2022-11-24T08:19:43.533Z,100724.97
2022-11-24T08:22:10.289Z,100724.97
2022-11-24T08:24:38.567Z,100732.91
2022-11-24T08:27:05.201Z,100729.22
2022-11-24T08:29:32.189Z,100735.56
2022-11-24T08:31:58.863Z,100734.53
2022-11-24T08:34:27.055Z,100744.34
2022-11-24T08:36:53.768Z,100738.00
2022-11-24T08:39:20.653Z,100747.63
2022-11-24T08:41:48.727Z,100754.25
2022-11-24T08:44:17.510Z,100754.88
2022-11-24T08:46:44.452Z,100763.47
2022-11-24T08:49:11.267Z,100760.81
2022-11-24T08:51:41.111Z,100766.78
2022-11-24T08:54:10.191Z,100766.41
2022-11-24T08:56:36.865Z,100774.19
2022-11-24T08:59:05.234Z,100773.19
2022-11-24T09:01:34.694Z,100779.16
2022-11-24T09:04:01.922Z,100776.50
2022-11-24T09:06:30.945Z,100782.44
2022-11-24T09:08:58.461Z,100790.22
2022-11-24T09:11:28.382Z,100797.03
2022-11-24T09:13:55.731Z,100795.19
2022-11-24T09:16:28.887Z,100801.50
2022-11-24T09:18:59.864Z,100794.38
2022-11-24T09:21:27.413Z,100800.50
2022-11-24T09:23:55.834Z,100797.84
2022-11-24T09:26:27.065Z,100800.31
2022-11-24T09:28:55.478Z,100806.47
2022-11-24T09:31:34.658Z,100810.13
2022-11-24T09:34:04.843Z,100819.06
2022-11-24T09:36:32.090Z,100830.50
2022-11-24T09:38:59.307Z,100832.16
2022-11-24T09:41:56.126Z,100836.44
2022-11-24T09:44:48.547Z,100841.75
2022-11-24T09:47:27.504Z,100845.06
2022-11-24T09:50:00.168Z,100842.06
2022-11-24T09:52:39.129Z,100850.66
2022-11-24T09:55:21.936Z,100844.34
2022-11-24T09:57:56.073Z,100859.28
2022-11-24T10:00:24.088Z,100857.44
2022-11-24T10:02:52.310Z,100854.78
2022-11-24T10:05:19.481Z,100858.28
2022-11-24T10:08:00.280Z,100864.25
2022-11-24T10:10:36.122Z,100865.91
2022-11-24T10:13:14.675Z,100872.84
2022-11-24T10:15:47.330Z,100877.97
2022-11-24T10:18:43.384Z,100885.59
2022-11-24T10:21:27.207Z,100874.59
2022-11-24T10:24:12.523Z,100885.22
2022-11-24T10:26:41.247Z,100886.69
2022-11-24T10:29:20.792Z,100882.88
2022-11-24T10:31:52.246Z,100884.53
2022-11-24T10:34:25.669Z,100891.47
2022-11-24T10:36:59.021Z,100893.94
2022-11-24T10:39:32.953Z,100895.59
2022-11-24T10:42:10.458Z,100904.06
2022-11-24T10:44:37.161Z,100906.34
2022-11-24T10:47:03.823Z,100904.34
2022-11-24T10:49:33.664Z,100914.59
2022-11-24T10:52:07.072Z,100919.72
2022-11-24T10:54:36.062Z,100915.06
2022-11-24T10:57:03.310Z,100911.88
2022-11-24T10:59:38.499Z,100913.19
2022-11-24T11:02:30.948Z,100923.44
2022-11-24T11:04:59.303Z,100920.44
2022-11-24T11:07:27.172Z,100920.06
2022-11-24T11:10:18.061Z,100920.56
2022-11-24T11:12:45.551Z,100922.22
2022-11-24T11:15:24.193Z,100926.16
2022-11-24T11:17:54.485Z,100921.31
2022-11-24T11:20:28.731Z,100927.06
2022-11-24T11:22:57.758Z,100937.34
2022-11-24T11:25:34.190Z,100935.16
2022-11-24T11:28:22.989Z,100932.97
2022-11-24T11:31:18.589Z,100942.22
2022-11-24T11:34:03.622Z,100939.22
2022-11-24T11:36:33.619Z,100938.81
2022-11-24T11:39:00.660Z,100935.81
2022-11-24T11:41:32.518Z,100930.16
2022-11-24T11:44:09.102Z,100936.91
2022-11-24T11:46:36.287Z,100928.75
2022-11-24T11:49:03.287Z,100940.66
2022-11-24T11:51:47.781Z,100940.31
2022-11-24T11:54:25.791Z,100939.97
2022-11-24T11:57:07.778Z,100940.59
2022-11-24T12:00:02.014Z,100937.56
2022-11-24T12:03:02.106Z,100938.00
2022-11-24T12:05:40.029Z,100922.53
2022-11-24T12:08:22.616Z,100930.13
2022-11-24T12:10:59.628Z,100933.06
2022-11-24T12:13:43.322Z,100930.03
2022-11-24T12:16:14.125Z,100935.19
2022-11-24T12:19:03.040Z,100936.66
2022-11-24T12:21:35.729Z,100940.56
2022-11-24T12:24:15.801Z,100939.38
2022-11-24T12:26:48.273Z,100940.00
2022-11-24T12:29:54.543Z,100942.13
2022-11-24T12:32:40.901Z,100942.56
2022-11-24T12:35:20.101Z,100936.91
2022-11-24T12:37:57.286Z,100942.88
2022-11-24T12:40:43.633Z,100943.47
2022-11-24T12:43:20.752Z,100944.13
2022-11-24T12:45:54.244Z,100942.94
2022-11-24T12:48:43.177Z,100936.59
2022-11-24T12:51:15.970Z,100932.72
2022-11-24T12:53:44.652Z,100938.50
2022-11-24T12:56:16.457Z,100943.28
2022-11-24T12:58:50.356Z,100941.25
2022-11-24T13:01:28.629Z,100950.50
2022-11-24T13:04:12.503Z,100945.00
2022-11-24T13:06:50.649Z,100943.81
2022-11-24T13:09:17.757Z,100954.06
2022-11-24T13:11:47.112Z,100951.03
2022-11-24T13:14:23.320Z,100953.53
2022-11-24T13:17:27.891Z,100962.13
2022-11-24T13:19:39.398Z,100959.09
2022-11-24T13:22:25.548Z,100965.84
2022-11-24T13:25:10.786Z,100955.06
2022-11-24T13:27:52.888Z,100958.53
2022-11-24T13:30:53.529Z,100958.38
2022-11-24T13:33:34.365Z,100957.34
2022-11-24T13:36:33.805Z,100956.34
2022-11-24T13:39:02.794Z,100950.63
2022-11-24T13:42:08.848Z,100949.63
2022-11-24T13:44:50.812Z,100955.78
2022-11-24T13:47:39.282Z,100953.94
2022-11-24T13:50:15.550Z,100944.94
2022-11-24T13:52:48.596Z,100959.06
2022-11-24T13:55:31.703Z,100951.09
2022-11-24T13:58:05.333Z,100947.41
2022-11-24T14:00:36.708Z,100944.53
2022-11-24T14:03:06.867Z,100940.84
2022-11-24T14:05:37.782Z,100944.53
2022-11-24T14:08:06.345Z,100940.03
2022-11-24T14:10:36.232Z,100944.53
2022-11-24T14:13:26.205Z,100944.53
2022-11-24T14:16:02.591Z,100937.59
2022-11-24T14:18:29.388Z,100941.88
2022-11-24T14:20:56.253Z,100944.53
2022-11-24T14:23:25.709Z,100938.38
2022-11-24T14:25:52.889Z,100936.75
2022-11-24T14:28:27.670Z,100942.09
2022-11-24T14:31:08.639Z,100941.25
2022-11-24T14:33:35.846Z,100937.75
2022-11-24T14:36:05.459Z,100932.63
2022-11-24T14:38:32.568Z,100935.28
2022-11-24T14:41:15.825Z,100938.97
2022-11-24T14:43:42.755Z,100943.66
2022-11-24T14:46:19.324Z,100936.88
2022-11-24T14:48:48.782Z,100942.22
2022-11-24T14:51:20.519Z,100943.22
2022-11-24T14:53:57.918Z,100950.72
2022-11-24T14:56:27.863Z,100948.63
2022-11-24T14:58:55.618Z,100948.19
2022-11-24T15:01:32.859Z,100946.72
2022-11-24T15:04:26.654Z,100947.28
2022-11-24T15:07:04.741Z,100949.50
2022-11-24T15:09:39.107Z,100957.03
2022-11-24T15:12:26.826Z,100958.59
2022-11-24T15:14:56.164Z,100954.03
2022-11-24T15:17:27.088Z,100954.59
2022-11-24T15:19:57.541Z,100956.78
2022-11-24T15:22:36.410Z,100958.34
2022-11-24T15:25:03.809Z,100962.19
2022-11-24T15:27:30.490Z,100960.09
2022-11-24T15:29:57.173Z,100969.47
2022-11-24T15:32:27.166Z,100957.53
2022-11-24T15:34:53.962Z,100966.91
2022-11-24T15:37:20.576Z,100969.09
2022-11-24T15:39:47.334Z,100975.63
2022-11-24T15:42:13.979Z,100969.00
2022-11-24T15:44:41.669Z,100974.72
2022-11-24T15:47:08.989Z,100981.41
2022-11-24T15:49:37.018Z,100980.13
2022-11-24T15:52:03.971Z,100985.16
2022-11-24T15:54:30.731Z,100985.69
2022-11-24T15:56:57.375Z,100991.56
2022-11-24T15:59:23.943Z,100990.25
2022-11-24T16:01:50.936Z,100997.97
2022-11-24T16:04:17.881Z,101002.00
2022-11-24T16:06:46.049Z,100999.69
2022-11-24T16:09:15.810Z,100997.41
2022-11-24T16:11:42.514Z,100999.59
2022-11-24T16:14:09.290Z,101001.78
2022-11-24T16:16:35.963Z,100994.34
2022-11-24T16:19:02.813Z,100997.38
2022-11-24T16:21:29.466Z,100995.88
2022-11-24T16:23:57.605Z,100987.63
2022-11-24T16:26:24.242Z,100992.63
2022-11-24T16:28:51.074Z,100986.88
2022-11-24T16:31:19.245Z,100989.03
2022-11-24T16:33:58.087Z,100984.22
2022-11-24T16:36:24.835Z,100985.78
2022-11-24T16:38:51.601Z,100989.59
2022-11-24T16:41:21.785Z,100980.16
2022-11-24T16:43:48.647Z,100989.31
2022-11-24T16:46:20.313Z,100993.31
2022-11-24T16:48:47.896Z,100995.34
2022-11-24T16:51:15.838Z,100993.19
2022-11-24T16:53:43.031Z,100997.66
2022-11-24T16:56:10.154Z,100989.91
2022-11-24T16:58:41.416Z,100997.03
2022-11-24T17:01:10.990Z,101000.84
2022-11-24T17:03:38.663Z,101001.03
2022-11-24T17:06:08.007Z,100996.91
2022-11-24T17:08:36.479Z,100999.75
2022-11-24T17:11:06.285Z,101001.91
2022-11-24T17:13:33.352Z,100992.47
2022-11-24T17:16:05.874Z,100998.13
2022-11-24T17:18:33.825Z,100991.53
2022-11-24T17:21:07.762Z,100994.34
2022-11-24T17:23:36.264Z,100989.22
2022-11-24T17:26:04.287Z,100989.38
2022-11-24T17:28:31.155Z,100989.56
2022-11-24T17:31:07.353Z,100989.75
2022-11-24T17:33:34.190Z,100990.91
2022-11-24T17:36:02.067Z,100992.72
2022-11-24T17:38:30.906Z,101000.84
2022-11-24T17:40:57.868Z,100999.22
2022-11-24T17:43:25.091Z,100996.56
2022-11-24T17:45:56.048Z,101000.22
2022-11-24T17:48:28.445Z,101005.53
2022-11-24T17:51:02.680Z,101003.88
2022-11-24T17:53:30.405Z,101005.69
2022-11-24T17:55:59.428Z,101014.66
2022-11-24T17:58:27.191Z,101007.53
2022-11-24T18:00:54.415Z,101010.00
2022-11-24T18:03:21.456Z,101010.00
2022-11-24T18:05:51.283Z,101011.66
2022-11-24T18:08:18.152Z,101014.31
2022-11-24T18:10:44.846Z,101015.94
2022-11-24T18:13:22.405Z,101018.44
2022-11-24T18:16:00.014Z,101020.25
2022-11-24T18:18:26.799Z,101011.47
2022-11-24T18:20:56.311Z,101013.28
2022-11-24T18:23:23.347Z,101012.13
2022-11-24T18:25:55.082Z,101013.13
2022-11-24T18:28:21.517Z,101005.34
2022-11-24T18:30:48.536Z,101002.50
2022-11-24T18:33:15.293Z,101000.03
2022-11-24T18:35:42.124Z,101007.97
2022-11-24T18:38:10.696Z,101005.34
2022-11-24T18:40:39.131Z,101014.13
2022-11-24T18:43:05.976Z,101006.00
2022-11-24T18:45:38.023Z,101006.00
2022-11-24T18:48:05.255Z,101003.34
2022-11-24T18:50:33.203Z,101006.16
2022-11-24T18:53:03.070Z,101006.00
2022-11-24T18:55:31.185Z,101007.66
2022-11-24T18:57:58.669Z,101005.00
2022-11-24T19:00:25.426Z,100998.03
2022-11-24T19:02:52.244Z,100996.22
2022-11-24T19:05:20.181Z,101002.34
2022-11-24T19:07:46.886Z,101005.16
2022-11-24T19:10:15.975Z,101004.34
2022-11-24T19:12:45.170Z,100992.25
2022-11-24T19:15:11.818Z,100986.13
2022-11-24T19:17:38.612Z,100988.78
2022-11-24T19:20:13.135Z,100992.59
2022-11-24T19:22:39.792Z,100989.13
2022-11-24T19:25:12.634Z,100992.75
2022-11-24T19:27:39.415Z,100996.41
2022-11-24T19:30:09.037Z,100993.94
2022-11-24T19:32:35.930Z,100988.81
2022-11-24T19:35:03.148Z,100976.38
2022-11-24T19:37:29.847Z,100980.84
2022-11-24T19:39:57.918Z,100981.03
2022-11-24T19:42:24.616Z,100975.88
2022-11-24T19:44:56.235Z,100967.91
2022-11-24T19:47:24.753Z,100966.25
2022-11-24T19:49:51.818Z,100967.47
2022-11-24T19:52:18.542Z,100971.28
2022-11-24T19:54:46.481Z,100967.97
2022-11-24T19:57:15.133Z,100974.09
2022-11-24T19:59:42.426Z,100969.81
2022-11-24T20:02:09.215Z,100971.81
2022-11-24T20:04:40.103Z,100982.56
2022-11-24T20:07:06.868Z,100975.63
2022-11-24T20:09:33.670Z,100971.50
2022-11-24T20:12:00.553Z,100982.28
2022-11-24T20:14:28.098Z,100979.63
2022-11-24T20:16:54.736Z,100971.81
2022-11-24T20:19:21.618Z,100986.75
2022-11-24T20:21:50.299Z,100987.91
2022-11-24T20:24:19.104Z,100989.72
2022-11-24T20:26:48.678Z,100977.47
2022-11-24T20:29:18.706Z,100980.13
2022-11-24T20:31:48.037Z,100987.44
2022-11-24T20:34:16.192Z,100979.81
2022-11-24T20:36:45.291Z,100979.97
2022-11-24T20:39:17.411Z,100978.50
2022-11-24T20:41:44.572Z,100983.97
2022-11-24T20:44:15.758Z,100980.50
2022-11-24T20:46:44.782Z,100986.97
2022-11-24T20:49:13.874Z,100988.78
2022-11-24T20:51:44.254Z,100988.97
2022-11-24T20:54:13.194Z,100988.31
2022-11-24T20:56:41.498Z,100988.47
2022-11-24T20:59:10.534Z,100986.81
2022-11-24T21:01:40.482Z,100997.41
2022-11-24T21:04:10.039Z,100987.66
2022-11-24T21:06:38.047Z,100986.66
2022-11-24T21:09:07.034Z,100992.78
2022-11-24T21:11:36.738Z,100988.16
2022-11-24T21:14:08.216Z,100979.19
2022-11-24T21:16:36.531Z,100982.66
2022-11-24T21:19:06.030Z,100974.69
2022-11-24T21:21:35.211Z,100974.69
2022-11-24T21:24:02.302Z,100981.66
2022-11-24T21:26:30.874Z,100979.00
2022-11-24T21:28:59.630Z,100968.25
2022-11-24T21:31:29.144Z,100969.91
2022-11-24T21:33:56.946Z,100973.22
2022-11-24T21:36:25.774Z,100974.88
2022-11-24T21:38:56.700Z,100975.66
2022-11-24T21:41:26.231Z,100973.00
2022-11-24T21:43:55.494Z,100968.38
2022-11-24T21:46:25.075Z,100970.03
2022-11-24T21:48:52.095Z,100962.09
2022-11-24T21:51:20.752Z,100954.28
2022-11-24T21:53:52.061Z,100956.59
2022-11-24T21:56:20.623Z,100954.94
2022-11-24T21:58:48.954Z,100947.81
2022-11-24T22:01:17.847Z,100942.53
2022-11-24T22:03:46.644Z,100942.53
2022-11-24T22:06:15.277Z,100938.22
2022-11-24T22:08:41.923Z,100932.91
2022-11-24T22:11:11.466Z,100931.75
2022-11-24T22:13:38.317Z,100933.41
2022-11-24T22:16:07.417Z,100927.28
2022-11-24T22:18:35.421Z,100927.28
2022-11-24T22:21:05.508Z,100923.59
2022-11-24T22:23:34.795Z,100925.09
2022-11-24T22:26:06.212Z,100924.91
2022-11-24T22:28:33.546Z,100918.78
2022-11-24T22:31:07.205Z,100932.22
2022-11-24T22:33:34.142Z,100923.25
2022-11-24T22:36:01.919Z,100920.63
2022-11-24T22:38:31.077Z,100917.97
2022-11-24T22:41:01.477Z,100913.66
2022-11-24T22:43:29.925Z,100906.69
2022-11-24T22:45:57.772Z,100899.56
2022-11-24T22:48:24.503Z,100897.06
2022-11-24T22:50:51.442Z,100900.38
2022-11-24T22:53:18.073Z,100898.72
2022-11-24T22:55:46.363Z,100895.09
2022-11-24T22:58:13.345Z,100899.56
2022-11-24T23:00:39.984Z,100900.56
2022-11-24T23:03:06.978Z,100903.88
2022-11-24T23:05:34.199Z,100895.09
2022-11-24T23:08:01.177Z,100916.97
2022-11-24T23:10:27.829Z,100898.41
2022-11-24T23:12:56.223Z,100908.00
2022-11-24T23:15:22.811Z,100908.66
2022-11-24T23:17:49.454Z,100898.03
2022-11-24T23:20:17.071Z,100910.31
2022-11-24T23:22:43.743Z,100897.88
2022-11-24T23:25:10.351Z,100895.22
2022-11-24T23:27:38.228Z,100898.69
2022-11-24T23:30:08.841Z,100897.69
2022-11-24T23:32:35.401Z,100900.19
2022-11-24T23:35:02.706Z,100885.94
2022-11-24T23:37:52.069Z,100893.69
2022-11-24T23:40:16.239Z,100894.72
2022-11-24T23:42:46.202Z,100883.91
2022-11-24T23:45:14.299Z,100890.88
2022-11-24T23:47:41.058Z,100892.53
2022-11-24T23:50:08.772Z,100884.41
2022-11-24T23:52:35.414Z,100881.75
2022-11-24T23:55:02.199Z,100884.22
2022-11-24T23:57:28.800Z,100887.72
2022-11-24T23:59:55.355Z,100898.31
